Weather

Current Metar report

KALM 171815Z AUTO 34010G15KT 10SM CLR 34/06 A3002 RMK AO2


Metar history is on Flightaware.

KALM AWOS Info
Phone Number: 575-439-4112
Freq: 127.825 MHz

KALM Weather Links

Soaring Forecasts Links